Time;durP1;ratioP1;P1;durP2;ratioP2;P2;SDS_P1;SDS_P2;PMS_P1;PMS_P2;Temp;Humidity;BMP_temperature;BMP_pressure;BME280_temperature;BME280_humidity;BME280_pressure;Samples;Min_cycle;Max_cycle;Signal;HPM_P1;HPM_P2
2023/03/02 00:00:39;;;;;;;29;18.1;;;;;;;;;;;;;
2023/03/02 00:03:04;;;;;;;22.9;15.6;;;;;;;;;;;;;
2023/03/02 00:05:39;;;;;;;20.7;14.5;;;;;;;;;;;;;
2023/03/02 00:08:06;;;;;;;22.3;15;;;;;;;;;;;;;
2023/03/02 00:10:37;;;;;;;25.5;15.9;;;;;;;;;;;;;
2023/03/02 00:13:07;;;;;;;23.5;15.9;;;;;;;;;;;;;
2023/03/02 00:15:36;;;;;;;24;15.1;;;;;;;;;;;;;
2023/03/02 00:18:10;;;;;;;24.7;15.4;;;;;;;;;;;;;
2023/03/02 00:20:38;;;;;;;21.7;14.3;;;;;;;;;;;;;
2023/03/02 00:23:03;;;;;;;21.4;15.1;;;;;;;;;;;;;
2023/03/02 00:25:32;;;;;;;21.9;14.2;;;;;;;;;;;;;
2023/03/02 00:27:57;;;;;;;23.2;14.3;;;;;;;;;;;;;
2023/03/02 00:30:32;;;;;;;22.2;15.3;;;;;;;;;;;;;
2023/03/02 00:33:01;;;;;;;23.6;15.4;;;;;;;;;;;;;
2023/03/02 00:35:27;;;;;;;20.9;14;;;;;;;;;;;;;
2023/03/02 00:37:53;;;;;;;22.3;13.9;;;;;;;;;;;;;
2023/03/02 00:40:20;;;;;;;21.2;15.1;;;;;;;;;;;;;
2023/03/02 00:42:47;;;;;;;20.5;13.7;;;;;;;;;;;;;
2023/03/02 00:45:12;;;;;;;20;13.4;;;;;;;;;;;;;
2023/03/02 00:47:38;;;;;;;19.9;12.8;;;;;;;;;;;;;
2023/03/02 00:50:03;;;;;;;19;12.5;;;;;;;;;;;;;
2023/03/02 00:52:32;;;;;;;19.8;13.1;;;;;;;;;;;;;
2023/03/02 00:54:57;;;;;;;19.8;13.3;;;;;;;;;;;;;
2023/03/02 00:57:22;;;;;;;18.6;12.7;;;;;;;;;;;;;
2023/03/02 00:59:48;;;;;;;19;13.2;;;;;;;;;;;;;
2023/03/02 01:02:13;;;;;;;20.5;12.8;;;;;;;;;;;;;
2023/03/02 01:04:38;;;;;;;18.1;11.4;;;;;;;;;;;;;
2023/03/02 01:07:03;;;;;;;17;11.8;;;;;;;;;;;;;
2023/03/02 01:09:31;;;;;;;20.3;12.5;;;;;;;;;;;;;
2023/03/02 01:11:56;;;;;;;19.6;12.6;;;;;;;;;;;;;
2023/03/02 01:14:22;;;;;;;19.6;12.6;;;;;;;;;;;;;
2023/03/02 01:16:47;;;;;;;19.9;13.1;;;;;;;;;;;;;
2023/03/02 01:19:14;;;;;;;23;13.3;;;;;;;;;;;;;
2023/03/02 01:21:39;;;;;;;19.4;13.5;;;;;;;;;;;;;
2023/03/02 01:24:09;;;;;;;19.9;13;;;;;;;;;;;;;
2023/03/02 01:26:37;;;;;;;21.8;14.1;;;;;;;;;;;;;
2023/03/02 01:29:02;;;;;;;20.9;13.8;;;;;;;;;;;;;
2023/03/02 01:31:29;;;;;;;19.9;13.3;;;;;;;;;;;;;
2023/03/02 01:33:54;;;;;;;21.1;13.3;;;;;;;;;;;;;
2023/03/02 01:36:21;;;;;;;22.6;13.8;;;;;;;;;;;;;
2023/03/02 01:38:46;;;;;;;18.6;13.3;;;;;;;;;;;;;
2023/03/02 01:41:11;;;;;;;20.5;12.9;;;;;;;;;;;;;
2023/03/02 01:43:36;;;;;;;19.6;13.2;;;;;;;;;;;;;
2023/03/02 01:46:03;;;;;;;20.9;13.1;;;;;;;;;;;;;
2023/03/02 01:48:28;;;;;;;23.5;13.8;;;;;;;;;;;;;
2023/03/02 01:50:53;;;;;;;22.2;13.6;;;;;;;;;;;;;
2023/03/02 01:53:20;;;;;;;20.1;13.2;;;;;;;;;;;;;
2023/03/02 01:55:45;;;;;;;19.4;13.3;;;;;;;;;;;;;
2023/03/02 01:58:12;;;;;;;18.1;12.5;;;;;;;;;;;;;
2023/03/02 02:00:37;;;;;;;20;13.3;;;;;;;;;;;;;
2023/03/02 02:03:09;;;;;;;18.8;13.2;;;;;;;;;;;;;
2023/03/02 02:05:30;;;;;;;20.3;13.2;;;;;;;;;;;;;
2023/03/02 02:07:55;;;;;;;24.5;15.2;;;;;;;;;;;;;
2023/03/02 02:10:20;;;;;;;20.7;14.5;;;;;;;;;;;;;
2023/03/02 02:12:45;;;;;;;22.3;15.1;;;;;;;;;;;;;
2023/03/02 02:15:10;;;;;;;19.6;14.1;;;;;;;;;;;;;
2023/03/02 02:17:36;;;;;;;23.9;15.4;;;;;;;;;;;;;
2023/03/02 02:20:06;;;;;;;23.3;15.5;;;;;;;;;;;;;
2023/03/02 02:22:28;;;;;;;22.7;14.3;;;;;;;;;;;;;
2023/03/02 02:24:53;;;;;;;22.1;14.6;;;;;;;;;;;;;
2023/03/02 02:27:18;;;;;;;22.8;14.4;;;;;;;;;;;;;
2023/03/02 02:29:46;;;;;;;21.6;14.7;;;;;;;;;;;;;
2023/03/02 02:32:11;;;;;;;20.7;14.2;;;;;;;;;;;;;
2023/03/02 02:34:38;;;;;;;21.3;14;;;;;;;;;;;;;
2023/03/02 02:37:03;;;;;;;20.1;13.5;;;;;;;;;;;;;
2023/03/02 02:39:30;;;;;;;19.5;13.2;;;;;;;;;;;;;
2023/03/02 02:41:56;;;;;;;20.4;13.2;;;;;;;;;;;;;
2023/03/02 02:44:21;;;;;;;19.4;12.3;;;;;;;;;;;;;
2023/03/02 02:46:47;;;;;;;19.6;12.6;;;;;;;;;;;;;
2023/03/02 02:49:12;;;;;;;20.3;13.3;;;;;;;;;;;;;
2023/03/02 02:51:42;;;;;;;19.1;12.9;;;;;;;;;;;;;
2023/03/02 02:54:07;;;;;;;19.9;13.1;;;;;;;;;;;;;
2023/03/02 02:56:32;;;;;;;17.8;12.4;;;;;;;;;;;;;
2023/03/02 02:58:58;;;;;;;19.5;12.8;;;;;;;;;;;;;
2023/03/02 03:01:24;;;;;;;18.7;12.1;;;;;;;;;;;;;
2023/03/02 03:03:52;;;;;;;20.9;12.8;;;;;;;;;;;;;
2023/03/02 03:06:17;;;;;;;20.2;13.4;;;;;;;;;;;;;
2023/03/02 03:08:42;;;;;;;20.8;13.9;;;;;;;;;;;;;
2023/03/02 03:11:07;;;;;;;18.8;12.9;;;;;;;;;;;;;
2023/03/02 03:13:33;;;;;;;19.3;12.6;;;;;;;;;;;;;
2023/03/02 03:16:00;;;;;;;18;12.2;;;;;;;;;;;;;
2023/03/02 03:18:25;;;;;;;21.1;13;;;;;;;;;;;;;
2023/03/02 03:20:51;;;;;;;17.7;12.4;;;;;;;;;;;;;
2023/03/02 03:23:16;;;;;;;22.1;13;;;;;;;;;;;;;
2023/03/02 03:25:41;;;;;;;20.4;13.5;;;;;;;;;;;;;
2023/03/02 03:28:06;;;;;;;19.8;13.1;;;;;;;;;;;;;
2023/03/02 03:30:33;;;;;;;19.1;12.6;;;;;;;;;;;;;
2023/03/02 03:32:58;;;;;;;20.5;13.4;;;;;;;;;;;;;
2023/03/02 03:35:23;;;;;;;20.3;13.2;;;;;;;;;;;;;
2023/03/02 03:37:50;;;;;;;21.5;13.5;;;;;;;;;;;;;
2023/03/02 03:40:16;;;;;;;19.1;13;;;;;;;;;;;;;
2023/03/02 03:42:42;;;;;;;30.4;18.7;;;;;;;;;;;;;
2023/03/02 03:45:09;;;;;;;31.8;19.3;;;;;;;;;;;;;
2023/03/02 03:47:33;;;;;;;24;16;;;;;;;;;;;;;
2023/03/02 03:50:00;;;;;;;21.1;13.9;;;;;;;;;;;;;
2023/03/02 03:52:29;;;;;;;21.3;14;;;;;;;;;;;;;
2023/03/02 03:54:51;;;;;;;19;13.3;;;;;;;;;;;;;
2023/03/02 03:57:16;;;;;;;21.2;13.8;;;;;;;;;;;;;
2023/03/02 03:59:43;;;;;;;21.4;13;;;;;;;;;;;;;
2023/03/02 04:02:34;;;;;;;20.2;13.6;;;;;;;0.4;89.82324;934.3736;;;;
2023/03/02 04:07:25;;;;;;;20.6;13.7;;;;;;;0.2;90.98438;934.4285;;;;
2023/03/02 04:10:02;;;;;;;21.4;13.1;;;;;;;0.06;91.72559;934.465;;;;
2023/03/02 04:12:16;;;;;;;20.2;13.6;;;;;;;0.03;92.31738;934.4306;;;;
2023/03/02 04:14:46;;;;;;;18.7;13;;;;;;;0.01;92.31543;934.3111;;;;
2023/03/02 04:17:11;;;;;;;21.6;13;;;;;;;-0.06;92.19922;934.3331;;;;
2023/03/02 04:19:39;;;;;;;21.5;12.5;;;;;;;-0.11;92.28809;934.2399;;;;
2023/03/02 04:22:05;;;;;;;17.7;12.8;;;;;;;-0.04;92.12598;934.3714;;;;
2023/03/02 04:24:32;;;;;;;19.8;13.4;;;;;;;0.05;91.24316;934.4339;;;;
2023/03/02 04:26:57;;;;;;;19;13.1;;;;;;;0.01;90.87891;934.4294;;;;
2023/03/02 04:29:28;;;;;;;20.5;13.2;;;;;;;-0.07;89.75879;934.4397;;;;
2023/03/02 04:34:27;;;;;;;19.7;13.2;;;;;;;-0.25;89.56445;934.5382;;;;
2023/03/02 04:37:03;;;;;;;22.5;13.9;;;;;;;-0.26;89.35059;934.5925;;;;
2023/03/02 04:39:30;;;;;;;22.8;13.8;;;;;;;-0.29;89.44336;934.58;;;;
2023/03/02 04:41:55;;;;;;;21.1;13.9;;;;;;;-0.31;90.88867;934.5223;;;;
2023/03/02 04:44:26;;;;;;;21.4;13;;;;;;;-0.3;91.21289;934.5242;;;;
2023/03/02 04:50:47;;;;;;;21;13.5;;;;;;;-0.37;93.01172;934.5001;;;;
2023/03/02 04:53:22;;;;;;;23.2;14.3;;;;;;;-0.28;92.98535;934.5555;;;;
2023/03/02 04:55:50;;;;;;;21.1;14;;;;;;;-0.19;92.69336;934.4853;;;;
2023/03/02 04:58:15;;;;;;;20.9;14.4;;;;;;;-0.12;92.06543;934.4736;;;;
2023/03/02 05:00:44;;;;;;;22.5;14.5;;;;;;;-0.23;92.27344;934.4584;;;;
2023/03/02 05:03:09;;;;;;;27;16.2;;;;;;;-0.33;93.1084;934.5541;;;;
2023/03/02 05:05:38;;;;;;;25.5;16;;;;;;;-0.32;93.66699;934.5344;;;;
2023/03/02 05:08:07;;;;;;;26.2;15.5;;;;;;;-0.26;93.62402;934.4656;;;;
2023/03/02 05:10:34;;;;;;;26.5;15.7;;;;;;;-0.25;93.43652;934.4401;;;;
2023/03/02 05:13:01;;;;;;;24.8;15.5;;;;;;;-0.31;93.49316;934.4551;;;;
2023/03/02 05:15:29;;;;;;;29.1;18.3;;;;;;;-0.37;93.64453;934.6125;;;;
2023/03/02 05:18:00;;;;;;;35.3;21.8;;;;;;;-0.36;93.59277;934.6719;;;;
2023/03/02 05:20:29;;;;;;;32.3;19.7;;;;;;;-0.29;92.59375;934.6537;;;;
2023/03/02 05:22:51;;;;;;;27.6;16;;;;;;;-0.18;91.96191;934.6361;;;;
2023/03/02 05:25:17;;;;;;;22.2;13.8;;;;;;;-0.2;90.28809;934.6565;;;;
2023/03/02 05:27:46;;;;;;;21.1;14.1;;;;;;;-0.35;89.69922;934.6666;;;;
2023/03/02 05:30:11;;;;;;;21.9;14.2;;;;;;;-0.25;89.08398;934.6372;;;;
2023/03/02 05:32:39;;;;;;;23.8;14.6;;;;;;;-0.29;88.73047;934.7085;;;;
2023/03/02 05:35:09;;;;;;;22.7;14.4;;;;;;;-0.31;88.42676;934.6529;;;;
2023/03/02 05:37:43;;;;;;;27.1;16;;;;;;;-0.28;88.90137;934.6433;;;;
2023/03/02 05:40:08;;;;;;;27.7;15.8;;;;;;;-0.25;89.6416;934.7087;;;;
2023/03/02 05:42:52;;;;;;;25.3;15;;;;;;;-0.29;89.63281;934.7434;;;;
2023/03/02 05:45:19;;;;;;;29.2;17.6;;;;;;;-0.48;90.03711;934.8083;;;;
2023/03/02 05:47:44;;;;;;;28.9;17.1;;;;;;;-0.58;89.78418;934.8525;;;;
2023/03/02 05:50:16;;;;;;;26.4;16.6;;;;;;;-0.57;90.91895;934.9185;;;;
2023/03/02 05:52:46;;;;;;;28.9;17.7;;;;;;;-0.66;91.7666;934.9142;;;;
2023/03/02 05:58:20;;;;;;;26.5;17;;;;;;;-0.69;93.59375;934.8056;;;;
2023/03/02 06:00:45;;;;;;;27.6;16.7;;;;;;;-0.65;93.83984;934.8653;;;;
2023/03/02 06:03:11;;;;;;;26.3;15.7;;;;;;;-0.74;93.9082;934.8577;;;;
2023/03/02 06:05:39;;;;;;;25.9;14.5;;;;;;;-0.76;94.19336;934.8167;;;;
2023/03/02 06:08:04;;;;;;;22.8;13.9;;;;;;;-0.87;94.54492;934.8716;;;;
2023/03/02 06:10:31;;;;;;;24;14.9;;;;;;;-0.81;94.88184;934.8328;;;;
2023/03/02 06:12:56;;;;;;;25.9;15.9;;;;;;;-0.65;94.66309;934.8897;;;;
2023/03/02 06:15:30;;;;;;;22.9;14.7;;;;;;;-0.54;93.9082;935.0084;;;;
2023/03/02 06:18:03;;;;;;;23.2;15.7;;;;;;;-0.47;93.68848;934.9573;;;;
2023/03/02 06:20:33;;;;;;;23.9;15.1;;;;;;;-0.32;93.7002;934.9871;;;;
2023/03/02 06:23:01;;;;;;;24.2;15.1;;;;;;;-0.24;92.88379;934.9405;;;;
2023/03/02 06:25:27;;;;;;;23.8;14.8;;;;;;;-0.24;92.37207;935.0016;;;;
2023/03/02 06:27:55;;;;;;;27.8;17.9;;;;;;;-0.21;92.41309;934.9827;;;;
2023/03/02 06:30:20;;;;;;;21.1;14.2;;;;;;;-0.23;92.22852;934.9988;;;;
2023/03/02 06:32:48;;;;;;;19.8;14.1;;;;;;;-0.24;92.36035;934.9984;;;;
2023/03/02 06:35:50;;;;;;;17.7;12.5;;;;;;;-0.2;92.39258;934.9638;;;;
2023/03/02 06:38:18;;;;;;;18.3;12.1;;;;;;;-0.24;92.52734;934.9414;;;;
2023/03/02 06:40:44;;;;;;;16.6;11.8;;;;;;;-0.22;92.26465;934.9164;;;;
2023/03/02 06:43:13;;;;;;;19.6;12.5;;;;;;;-0.18;92.47461;934.9249;;;;
2023/03/02 06:45:38;;;;;;;21.7;14.2;;;;;;;0.02;91.91699;934.9322;;;;
2023/03/02 06:57:15;;;;;;;19.6;12.7;;;;;;;0.41;89.44531;934.7336;;;;
2023/03/02 06:59:44;;;;;;;16.9;11.7;;;;;;;0.57;89.00293;934.6635;;;;
2023/03/02 07:02:09;;;;;;;18;11.7;;;;;;;0.78;88.36523;934.7294;;;;
2023/03/02 07:04:39;;;;;;;16;11.1;;;;;;;0.86;87.5791;934.7761;;;;
2023/03/02 07:07:04;;;;;;;15.6;10.4;;;;;;;0.93;87.37988;934.7048;;;;
2023/03/02 07:09:31;;;;;;;13.8;9.9;;;;;;;0.76;88.06055;934.6747;;;;
2023/03/02 07:11:55;;;;;;;15.6;10.4;;;;;;;0.73;88.47656;934.7463;;;;
2023/03/02 07:16:48;;;;;;;20.2;13;;;;;;;0.62;89.91602;934.8326;;;;
2023/03/02 07:19:18;;;;;;;18.1;12.6;;;;;;;0.76;90.19141;934.8063;;;;
2023/03/02 07:21:43;;;;;;;18.7;12.2;;;;;;;0.94;89.29297;934.8245;;;;
2023/03/02 07:24:11;;;;;;;21.8;13.9;;;;;;;1.13;88.49512;934.8544;;;;
2023/03/02 07:26:36;;;;;;;18.2;12.4;;;;;;;1.64;87.09082;934.7567;;;;
2023/03/02 07:29:05;;;;;;;17.2;11.3;;;;;;;2.25;83.84668;934.7548;;;;
2023/03/02 07:31:37;;;;;;;14.6;10.3;;;;;;;2.71;81.55859;934.7456;;;;
2023/03/02 07:34:06;;;;;;;13.7;9.7;;;;;;;3.12;79.10254;934.7219;;;;
2023/03/02 07:36:36;;;;;;;13.1;8.6;;;;;;;3.55;77.82422;934.7502;;;;
2023/03/02 07:39:01;;;;;;;11.4;7.9;;;;;;;3.84;76.92188;934.835;;;;
2023/03/02 07:41:31;;;;;;;11.6;8.6;;;;;;;4.31;73.99023;934.7674;;;;
2023/03/02 07:43:56;;;;;;;11.4;8.5;;;;;;;4.03;74.94141;934.842;;;;
2023/03/02 07:46:26;;;;;;;13.7;8.8;;;;;;;4.43;74.16992;934.812;;;;
2023/03/02 07:48:57;;;;;;;13.3;9.2;;;;;;;5.25;73.56738;934.8108;;;;
2023/03/02 07:51:25;;;;;;;12.3;9.4;;;;;;;5.36;70.23535;934.7888;;;;
2023/03/02 07:53:50;;;;;;;14;10;;;;;;;5.77;69.09473;934.9274;;;;
2023/03/02 07:56:20;;;;;;;16.5;11;;;;;;;5.58;69.26758;934.9844;;;;
2023/03/02 07:58:45;;;;;;;12.4;8.9;;;;;;;5.2;70.58203;934.9727;;;;
2023/03/02 08:01:16;;;;;;;13.7;9.7;;;;;;;5.17;71.23047;935.0098;;;;
2023/03/02 08:03:41;;;;;;;13.3;10.8;;;;;;;6.13;68.92578;934.9974;;;;
2023/03/02 08:06:06;;;;;;;12.2;9.3;;;;;;;6.57;66.47461;935.0502;;;;
2023/03/02 08:08:31;;;;;;;15.8;10.3;;;;;;;6.52;63.12891;935.073;;;;
2023/03/02 08:10:58;;;;;;;16.7;11.3;;;;;;;6.25;62.05078;935.0975;;;;
2023/03/02 08:13:23;;;;;;;17.2;11.9;;;;;;;5.67;63.99707;935.1273;;;;
2023/03/02 08:15:55;;;;;;;16.7;11.7;;;;;;;5.92;63.87695;935.1287;;;;
2023/03/02 08:18:21;;;;;;;17.2;12;;;;;;;6.37;61.85254;935.1409;;;;
2023/03/02 08:20:49;;;;;;;17.8;12.4;;;;;;;6.66;61.31738;935.0878;;;;
2023/03/02 08:23:18;;;;;;;16.8;11.8;;;;;;;6.86;60.48535;935.0948;;;;
2023/03/02 08:25:43;;;;;;;20.4;12.4;;;;;;;6.69;61.34375;935.0867;;;;
2023/03/02 08:28:12;;;;;;;16.1;11.5;;;;;;;6.87;61.94727;935.1306;;;;
2023/03/02 08:30:37;;;;;;;16.8;12.1;;;;;;;7.08;59.91602;935.1426;;;;
2023/03/02 08:33:06;;;;;;;16;12;;;;;;;7.1;59.5332;935.1429;;;;
2023/03/02 08:35:31;;;;;;;17;12;;;;;;;6.24;62.03809;935.1628;;;;
2023/03/02 08:37:59;;;;;;;19.4;13;;;;;;;6.45;61.67188;935.1206;;;;
2023/03/02 08:40:28;;;;;;;17.2;12.3;;;;;;;7.42;59.97656;935.0111;;;;
2023/03/02 08:42:56;;;;;;;18.4;11.9;;;;;;;8.25;56.51367;934.9796;;;;
2023/03/02 08:45:24;;;;;;;19.3;12.6;;;;;;;8.1;57.27832;934.9836;;;;
2023/03/02 08:47:59;;;;;;;15.9;11.7;;;;;;;7.87;57.77832;934.9755;;;;
2023/03/02 08:50:26;;;;;;;18.8;12.2;;;;;;;8.35;57.37988;934.9066;;;;
2023/03/02 08:52:51;;;;;;;18.1;12.8;;;;;;;8.04;59.41504;935.002;;;;
2023/03/02 08:55:20;;;;;;;13.1;9.2;;;;;;;8.98;57.88379;934.8365;;;;
2023/03/02 08:57:46;;;;;;;11.8;8.4;;;;;;;10.53;54.2666;934.7271;;;;
2023/03/02 09:00:16;;;;;;;10.8;7.3;;;;;;;11.05;51.68066;934.7325;;;;
2023/03/02 09:02:41;;;;;;;11.2;8.8;;;;;;;10.88;52.92773;934.7676;;;;
2023/03/02 09:05:11;;;;;;;12.8;9.4;;;;;;;12.43;49.91895;934.7791;;;;
2023/03/02 09:07:36;;;;;;;9.7;6.9;;;;;;;12.82;48.15039;934.7733;;;;
2023/03/02 09:10:09;;;;;;;9.3;6.7;;;;;;;13.36;47.02539;934.7877;;;;
2023/03/02 09:12:39;;;;;;;15.7;10.6;;;;;;;13.03;44.12012;934.8315;;;;
2023/03/02 09:15:14;;;;;;;14.2;10.8;;;;;;;12.33;46.02051;934.7919;;;;
2023/03/02 09:17:47;;;;;;;19.9;13.9;;;;;;;12.11;45.57227;934.7755;;;;
2023/03/02 09:20:15;;;;;;;20.7;14.3;;;;;;;10.89;47.02148;934.9023;;;;
2023/03/02 09:22:49;;;;;;;22.5;14.7;;;;;;;9.63;50.96387;934.8884;;;;
2023/03/02 09:25:13;;;;;;;22.6;15.4;;;;;;;8.24;54.89941;935.0422;;;;
2023/03/02 09:27:40;;;;;;;19.8;13.9;;;;;;;8.49;55.31836;935.0553;;;;
2023/03/02 09:30:06;;;;;;;20;14.4;;;;;;;9.11;53.58789;935.0429;;;;
2023/03/02 09:32:37;;;;;;;22.5;15.1;;;;;;;9.49;52.59863;934.9911;;;;
2023/03/02 09:35:03;;;;;;;24.3;16.1;;;;;;;9.67;52.17676;935.1161;;;;
2023/03/02 09:37:37;;;;;;;28.2;17.3;;;;;;;9.65;51.11328;935.0276;;;;
2023/03/02 09:40:11;;;;;;;24.8;16;;;;;;;9.51;52.76074;935.0598;;;;
2023/03/02 09:43:43;;;;;;;26;16.9;;;;;;;9.49;54.09082;935.0627;;;;
2023/03/02 09:46:07;;;;;;;24.6;16.2;;;;;;;10.42;51.14941;934.9988;;;;
2023/03/02 09:48:35;;;;;;;24.1;16.1;;;;;;;10.72;50.49805;935.1166;;;;
2023/03/02 09:51:05;;;;;;;26.1;16.7;;;;;;;11.32;49.13867;935.1588;;;;
2023/03/02 09:53:36;;;;;;;26.8;17.7;;;;;;;11.24;49.96484;935.0669;;;;
2023/03/02 09:56:05;;;;;;;27.5;18.5;;;;;;;11.65;47.81348;935.1859;;;;
2023/03/02 09:58:30;;;;;;;26.7;18.2;;;;;;;10.77;49.7041;935.2234;;;;
2023/03/02 10:00:55;;;;;;;28.4;18.3;;;;;;;10.18;51.54199;935.1932;;;;
2023/03/02 10:03:20;;;;;;;30.8;18.8;;;;;;;10.14;52.39258;935.2383;;;;
2023/03/02 10:05:45;;;;;;;31.1;18.5;;;;;;;9.88;53.94531;935.3398;;;;
2023/03/02 10:08:10;;;;;;;31.4;18.6;;;;;;;9.77;54.08008;935.2949;;;;
2023/03/02 10:10:38;;;;;;;27.6;17.5;;;;;;;9.08;57.18066;935.3642;;;;
2023/03/02 10:13:03;;;;;;;27.8;17.4;;;;;;;10.16;53.90039;935.3649;;;;
2023/03/02 10:15:28;;;;;;;28.2;17.6;;;;;;;11.11;51.21875;935.3183;;;;
2023/03/02 10:17:57;;;;;;;29.7;17.6;;;;;;;11.35;50.38867;935.3684;;;;
2023/03/02 10:20:24;;;;;;;25.4;16.6;;;;;;;11.15;50.68555;935.4585;;;;
2023/03/02 10:22:50;;;;;;;27.2;16.7;;;;;;;11.25;50.32031;935.4105;;;;
2023/03/02 10:25:18;;;;;;;28.2;18;;;;;;;11.38;50.29004;935.4697;;;;
2023/03/02 10:27:43;;;;;;;30;18.1;;;;;;;10.76;51.91992;935.4949;;;;
2023/03/02 10:30:13;;;;;;;28.8;17.9;;;;;;;11.1;51.18262;935.5086;;;;
2023/03/02 10:32:38;;;;;;;30.4;17.6;;;;;;;10.46;52.24805;935.4479;;;;
2023/03/02 10:35:04;;;;;;;32;19.2;;;;;;;9.23;56.63184;935.3987;;;;
2023/03/02 10:37:36;;;;;;;31.3;18.7;;;;;;;9.44;56.07813;935.5176;;;;
2023/03/02 10:40:01;;;;;;;32;18.5;;;;;;;9.2;56.89941;935.5172;;;;
2023/03/02 10:42:26;;;;;;;29.5;18.2;;;;;;;9;56.93066;935.5387;;;;
2023/03/02 10:44:51;;;;;;;27;16.6;;;;;;;9.89;56.54688;935.4495;;;;
2023/03/02 10:47:18;;;;;;;33.6;19.4;;;;;;;10.57;53.1875;935.4302;;;;
2023/03/02 10:49:43;;;;;;;26.8;18.1;;;;;;;10.24;53.93359;935.3317;;;;
2023/03/02 10:52:08;;;;;;;30.9;18.5;;;;;;;10.08;53.86719;935.3262;;;;
2023/03/02 10:54:34;;;;;;;31.6;19;;;;;;;10.33;54.57227;935.3625;;;;
2023/03/02 10:56:58;;;;;;;29.6;17.9;;;;;;;10.53;53.42188;935.3176;;;;
2023/03/02 10:59:24;;;;;;;28.7;16.4;;;;;;;10.64;53.23047;935.3121;;;;
2023/03/02 11:01:49;;;;;;;29.9;18.2;;;;;;;10.54;54.57617;935.3519;;;;
2023/03/02 11:04:17;;;;;;;30.7;18;;;;;;;10.47;53.79199;935.3358;;;;
2023/03/02 11:06:42;;;;;;;29.9;18.5;;;;;;;10.74;52.41992;935.2527;;;;
2023/03/02 11:09:10;;;;;;;32.5;18.6;;;;;;;9.79;56.33887;935.2759;;;;
2023/03/02 11:11:35;;;;;;;32.3;19.6;;;;;;;10.69;53.45313;935.228;;;;
2023/03/02 11:14:00;;;;;;;30.4;18.6;;;;;;;10.83;53.5498;935.2287;;;;
2023/03/02 11:16:26;;;;;;;30.2;19;;;;;;;11.26;52.6543;935.2447;;;;
2023/03/02 11:18:50;;;;;;;29.8;17.9;;;;;;;10.87;52.91504;935.3109;;;;
2023/03/02 11:21:19;;;;;;;29;18.9;;;;;;;11.65;50.62891;935.3134;;;;
2023/03/02 11:23:45;;;;;;;30.9;18.1;;;;;;;12.36;48.58008;935.2805;;;;
2023/03/02 11:26:11;;;;;;;34.1;19;;;;;;;12.15;49.81836;935.2949;;;;
2023/03/02 11:28:36;;;;;;;30.1;17.8;;;;;;;12.69;48.28516;935.3463;;;;
2023/03/02 11:31:01;;;;;;;31.8;18.8;;;;;;;11.39;51.82324;935.4036;;;;
2023/03/02 11:33:26;;;;;;;30.1;18.5;;;;;;;11.82;49.88184;935.4002;;;;
2023/03/02 11:35:51;;;;;;;29.2;17;;;;;;;10.9;52.38184;935.4121;;;;
2023/03/02 11:38:16;;;;;;;27;16.4;;;;;;;10.28;53.44824;935.4641;;;;
2023/03/02 11:40:43;;;;;;;29.9;18.1;;;;;;;10.15;54.58398;935.4317;;;;
2023/03/02 11:43:08;;;;;;;27;17;;;;;;;10.19;55.27441;935.3937;;;;
2023/03/02 11:45:35;;;;;;;28.4;16.9;;;;;;;8.72;59.15723;935.4154;;;;
2023/03/02 11:48:00;;;;;;;31.1;18;;;;;;;8.34;61.53516;935.4316;;;;
2023/03/02 11:50:25;;;;;;;30.6;18.7;;;;;;;7.84;62.81445;935.484;;;;
2023/03/02 11:52:50;;;;;;;30.2;19;;;;;;;7.27;65.19043;935.4455;;;;
2023/03/02 11:55:23;;;;;;;31.2;18.3;;;;;;;7.27;65.39258;935.5309;;;;
2023/03/02 11:57:49;;;;;;;30.7;18.3;;;;;;;7.24;65.33203;935.5676;;;;
2023/03/02 12:00:14;;;;;;;29.9;17.5;;;;;;;7.37;65.47754;935.5708;;;;
2023/03/02 12:02:41;;;;;;;30.5;18.1;;;;;;;7.25;65.76465;935.5584;;;;
2023/03/02 12:05:06;;;;;;;31.3;19;;;;;;;7.14;65.66895;935.5095;;;;
2023/03/02 12:07:32;;;;;;;31.9;18.8;;;;;;;6.54;68.00684;935.6024;;;;
2023/03/02 12:09:57;;;;;;;31.2;18.5;;;;;;;6.42;69.06445;935.5527;;;;
2023/03/02 12:12:22;;;;;;;30.3;18.8;;;;;;;6.9;68.82324;935.5775;;;;
2023/03/02 12:14:47;;;;;;;32.3;19.5;;;;;;;6.99;68.10352;935.5999;;;;
2023/03/02 12:17:17;;;;;;;31.6;19;;;;;;;6.84;68.10156;935.5963;;;;
2023/03/02 12:19:47;;;;;;;31.6;19.5;;;;;;;6.05;70.55176;935.5941;;;;
2023/03/02 12:22:14;;;;;;;34.2;20.3;;;;;;;6.27;70.39648;935.7081;;;;
2023/03/02 12:24:37;;;;;;;32.5;19.7;;;;;;;6.53;70.63184;935.7241;;;;
2023/03/02 12:27:03;;;;;;;30.8;18.8;;;;;;;6.43;69.26953;935.6597;;;;
2023/03/02 12:29:28;;;;;;;33.5;19.1;;;;;;;6.22;70.72656;935.6406;;;;
2023/03/02 12:31:57;;;;;;;32.2;19.6;;;;;;;5.84;72.94531;935.7104;;;;
2023/03/02 12:34:22;;;;;;;34;19.4;;;;;;;5.92;71.61523;935.6731;;;;
2023/03/02 12:36:47;;;;;;;34.8;19.9;;;;;;;5.87;72.30762;935.6646;;;;
2023/03/02 12:39:18;;;;;;;33.7;19.8;;;;;;;5.58;73.60156;935.6605;;;;
2023/03/02 12:41:46;;;;;;;36.7;20.4;;;;;;;5.77;73.76855;935.6888;;;;
2023/03/02 12:44:11;;;;;;;34.8;20.8;;;;;;;6.19;72.44141;935.6161;;;;
2023/03/02 12:46:39;;;;;;;35.2;19.8;;;;;;;6.29;71.23633;935.6097;;;;
2023/03/02 12:49:02;;;;;;;36.2;21.2;;;;;;;6.29;70.7041;935.6105;;;;
2023/03/02 12:51:27;;;;;;;34.5;20.3;;;;;;;5.96;72.01758;935.6147;;;;
2023/03/02 12:53:56;;;;;;;37.2;21.5;;;;;;;5.49;73.30273;935.6252;;;;
2023/03/02 12:56:21;;;;;;;36.4;21.4;;;;;;;5.27;75.02637;935.6566;;;;
2023/03/02 12:58:46;;;;;;;37.6;21;;;;;;;5.24;75.48145;935.6637;;;;
2023/03/02 13:01:12;;;;;;;33.3;19.8;;;;;;;5.29;75.14063;935.6791;;;;
2023/03/02 13:03:39;;;;;;;34.9;19.8;;;;;;;5.32;75.42773;935.6578;;;;
2023/03/02 13:06:05;;;;;;;33.3;20.3;;;;;;;5.11;75.72949;935.5826;;;;
2023/03/02 13:08:32;;;;;;;35.9;20.2;;;;;;;5.31;75.23438;935.6077;;;;
2023/03/02 13:10:57;;;;;;;33.7;18.9;;;;;;;5.3;75.84375;935.6306;;;;
2023/03/02 13:13:23;;;;;;;32.1;18.5;;;;;;;5.47;75.09375;935.6925;;;;
2023/03/02 13:15:48;;;;;;;34.3;20.2;;;;;;;5.31;74.97656;935.6055;;;;
2023/03/02 13:18:15;;;;;;;38.2;20.6;;;;;;;5.21;75.64551;935.692;;;;
2023/03/02 13:20:40;;;;;;;32.9;19.2;;;;;;;5.3;75.38086;935.6708;;;;
2023/03/02 13:23:05;;;;;;;33.4;20.4;;;;;;;5.26;75.57617;935.6437;;;;
2023/03/02 13:25:32;;;;;;;36.1;20.8;;;;;;;4.83;77.07715;935.7441;;;;
2023/03/02 13:27:59;;;;;;;37.9;22.1;;;;;;;4.97;77.00293;935.7163;;;;
2023/03/02 13:30:22;;;;;;;33.5;19.5;;;;;;;4.91;76.87695;935.649;;;;
2023/03/02 13:32:49;;;;;;;35.5;20.5;;;;;;;4.76;77.45996;935.7065;;;;
2023/03/02 13:35:13;;;;;;;36.1;19.9;;;;;;;4.68;78.15234;935.7327;;;;
2023/03/02 13:37:42;;;;;;;39.3;22.9;;;;;;;4.56;78.56055;935.7355;;;;
2023/03/02 13:40:07;;;;;;;36.9;20.8;;;;;;;4.38;79.38086;935.7253;;;;
2023/03/02 13:42:32;;;;;;;32.4;19.8;;;;;;;4.31;80.04492;935.7329;;;;
2023/03/02 13:45:00;;;;;;;33.9;19.7;;;;;;;4.47;79.55762;935.7054;;;;
2023/03/02 13:47:26;;;;;;;38.7;22;;;;;;;4.36;80.0752;935.7414;;;;
2023/03/02 13:49:54;;;;;;;34.1;20.1;;;;;;;4.25;80.85449;935.7327;;;;
2023/03/02 13:52:19;;;;;;;36.8;20.6;;;;;;;3.91;82.78027;935.7693;;;;
2023/03/02 13:54:44;;;;;;;35.8;21.5;;;;;;;4.15;82.5;935.7595;;;;
2023/03/02 13:57:09;;;;;;;36.4;20.9;;;;;;;4.54;81.25977;935.7878;;;;
2023/03/02 13:59:38;;;;;;;37.1;21.1;;;;;;;4.32;80.96875;935.7094;;;;
2023/03/02 14:02:05;;;;;;;37.3;21.3;;;;;;;4.52;80.93945;935.7408;;;;
2023/03/02 14:04:30;;;;;;;35.4;19.9;;;;;;;4.32;81.49805;935.7812;;;;
2023/03/02 14:06:57;;;;;;;35.1;20;;;;;;;4.59;81.03223;935.7756;;;;
2023/03/02 14:09:26;;;;;;;33.6;19.6;;;;;;;4.71;80.17578;935.7225;;;;
2023/03/02 14:11:51;;;;;;;35.2;19.9;;;;;;;5.03;79.17676;935.7662;;;;
2023/03/02 14:14:18;;;;;;;36.7;20.4;;;;;;;5.05;77.89551;935.8109;;;;
2023/03/02 14:16:44;;;;;;;32.3;18.6;;;;;;;5.1;77.41895;935.7797;;;;
2023/03/02 14:19:15;;;;;;;36;19.8;;;;;;;5.18;77.56836;935.8427;;;;
2023/03/02 14:21:39;;;;;;;34.5;19.9;;;;;;;5.35;77.03613;935.8409;;;;
2023/03/02 14:24:07;;;;;;;33.5;19.2;;;;;;;5.44;76.18359;935.8293;;;;
2023/03/02 14:26:32;;;;;;;34;19.7;;;;;;;5.12;77.0498;935.7922;;;;
2023/03/02 14:28:59;;;;;;;34.4;19.1;;;;;;;5.24;76.67773;935.805;;;;
2023/03/02 14:31:26;;;;;;;32.5;19;;;;;;;5.41;76.70898;935.8593;;;;
2023/03/02 14:33:54;;;;;;;34;19.1;;;;;;;5.3;76.94727;935.8254;;;;
2023/03/02 14:36:19;;;;;;;31.5;18;;;;;;;5.45;76.77148;935.8895;;;;
2023/03/02 14:38:44;;;;;;;32.2;18.2;;;;;;;5.42;76.63184;935.8532;;;;
2023/03/02 14:41:09;;;;;;;31.1;18;;;;;;;5.37;76.05762;935.8351;;;;
2023/03/02 14:43:39;;;;;;;31.1;17.4;;;;;;;4.74;78.81934;935.8614;;;;
2023/03/02 14:46:07;;;;;;;30.6;17.4;;;;;;;4.67;79.09668;935.9138;;;;
2023/03/02 14:48:32;;;;;;;30.6;17.7;;;;;;;4.53;79.86035;935.9222;;;;
2023/03/02 14:51:01;;;;;;;29.2;17.6;;;;;;;4.35;80.50195;935.887;;;;
2023/03/02 14:53:25;;;;;;;31.9;17.1;;;;;;;4.3;80.94336;935.8635;;;;
2023/03/02 14:55:54;;;;;;;33;18.9;;;;;;;4.42;80.74023;935.8751;;;;
2023/03/02 14:58:19;;;;;;;31.3;18;;;;;;;4.35;81.12988;935.8553;;;;
2023/03/02 15:00:47;;;;;;;31.5;18.5;;;;;;;4.4;81.12891;935.9024;;;;
2023/03/02 15:03:13;;;;;;;32.9;17.9;;;;;;;4.41;81.11035;935.8566;;;;
2023/03/02 15:05:38;;;;;;;33.4;18.6;;;;;;;4.54;80.65039;935.8862;;;;
2023/03/02 15:08:03;;;;;;;28.9;17.3;;;;;;;4.5;80.42773;935.9119;;;;
2023/03/02 15:10:30;;;;;;;28.3;17.4;;;;;;;4.35;80.92773;935.9861;;;;
2023/03/02 15:12:55;;;;;;;33.9;18.8;;;;;;;4.49;81.38281;935.9706;;;;
2023/03/02 15:15:25;;;;;;;33.6;18.6;;;;;;;4.57;80.58887;935.8903;;;;
2023/03/02 15:17:49;;;;;;;33.8;18.7;;;;;;;4.38;80.45215;935.9313;;;;
2023/03/02 15:20:20;;;;;;;30.4;17.6;;;;;;;4.19;81.48535;935.9892;;;;
2023/03/02 15:22:49;;;;;;;31.7;18.5;;;;;;;4.36;81.54004;935.9534;;;;
2023/03/02 15:25:14;;;;;;;33.5;19;;;;;;;4.22;81.73633;936.0424;;;;
2023/03/02 15:27:42;;;;;;;31.9;18.1;;;;;;;4.36;81.49512;936.0417;;;;
2023/03/02 15:30:08;;;;;;;35.2;19.1;;;;;;;4.53;80.77051;936.0506;;;;
2023/03/02 15:32:37;;;;;;;33.1;18.8;;;;;;;4.5;80.59668;936.1027;;;;
2023/03/02 15:35:04;;;;;;;32.4;19.3;;;;;;;4.38;81.27344;936.0912;;;;
2023/03/02 15:37:29;;;;;;;32.9;18.6;;;;;;;4.52;80.90527;936.0963;;;;
2023/03/02 15:39:58;;;;;;;35;18.9;;;;;;;4.47;80.73926;936.12;;;;
2023/03/02 15:42:23;;;;;;;35.3;19.8;;;;;;;4.38;81.39746;936.1394;;;;